• Join FlightAware (Why Join?)
  • Login
  • US Flag 
04:25PM EDT


 

Airport Tracker/Info


-or-


 

Live Flight TrackerFlight Track Log ✈ DAL1051 ✈ 30-Jul-2013 ✈ KBIL - KMSP

Flight Track Log - Related Links

Times and Time Zones

All times are in EDT time to prevent confusion due to time zone crossing. See the DAL1051 flight status page for this flight to view local times or setup timezone preferences in your user account.

Time Position Orientation Groundspeed Altitude Reporting Facility
EDT Latitude Longitude Course Direction KTS MPH feet Rate Location/Type
04:05PM 45.7725 -108.3986 110° East 218 251 6,700  Level Salt Lake Center
04:06PM 45.8951 -108.1677 73° East  Level FlightAware Approximate
04:06PM 45.7772 -108.2767 87° East 288 331 9,700  Level Salt Lake Center
04:07PM 45.9381 -107.9929 74° East  Level FlightAware Approximate
04:07PM 45.7947 -108.1494 79° East 323 372 11,500  Level Salt Lake Center
04:08PM 45.9788 -107.8169 75° East  Level FlightAware Approximate
04:08PM 45.8167 -107.9836 79° East 387 445 14,600  Level Salt Lake Center
04:09PM 46.0143 -107.6381 72° East  Level FlightAware Approximate
04:09PM 45.8372 -107.8319 79° East 392 451 17,500  Level Salt Lake Center
04:10PM 45.8594 -107.6631 79° East 401 461 20,500 2,100 Climbing Salt Lake Center
04:11PM 45.8800 -107.5064 79° East 405 466 21,900 1,260 Climbing Salt Lake Center
04:12PM 45.9044 -107.3161 79° East 452 520 23,200 1,260 Climbing Salt Lake Center
04:13PM 45.9275 -107.1364 79° East 476 548 24,600 1,380 Climbing Salt Lake Center
04:14PM 45.9517 -106.9433 80° East 484 557 26,100 1,500 Climbing Salt Lake Center
04:15PM 45.9753 -106.7425 80° East 495 570 27,700 1,200 Climbing Salt Lake Center
04:16PM 45.9989 -106.5381 80° East 507 583 28,600 960 Climbing Salt Lake Center
04:17PM 46.0256 -106.3292 80° East 518 596 29,800 1,500 Climbing Salt Lake Center
04:18PM 46.0547 -106.0775 80° East 527 606 31,700 1,560 Climbing Salt Lake Center
04:19PM 46.0786 -105.8678 81° East 530 610 33,000 1,320 Climbing Salt Lake Center
04:20PM 46.1022 -105.6614 81° East 529 609 34,500 1,260 Climbing Salt Lake Center
04:21PM 46.1267 -105.4569 80° East 526 605 35,700 960 Climbing Salt Lake Center
04:22PM 46.1489 -105.2519 81° East 523 602 36,600 600 Climbing Salt Lake Center
04:23PM 46.1703 -105.0481 81° East 521 600 37,000 180 Climbing Salt Lake Center
04:24PM 46.1964 -104.8078 81° East 515 593 37,000 -60 Level Salt Lake Center
04:25PM 46.2181 -104.6061 81° East 513 590 36,900 -60 Descending Salt Lake Center
04:26PM 46.2381 -104.4061 82° East 510 587 36,900  Level Salt Lake Center
04:27PM 46.2586 -104.2050 82° East 509 586 36,900  Level Salt Lake Center
04:28PM 46.2794 -104.0044 81° East 509 586 37,000  Climbing Salt Lake Center
04:29PM 46.2986 -103.8028 82° East 509 586 37,000 -60 Level Salt Lake Center
04:30PM 46.3219 -103.5650 82° East 506 582 36,900 -60 Descending Salt Lake Center
04:31PM 46.3414 -103.3636 82° East 506 582 36,900  Level Salt Lake Center
04:32PM 46.3603 -103.1644 82° East 506 582 36,900  Level Salt Lake Center
04:34PM 46.3781 -102.9639 83° East 505 581 37,000  Climbing Salt Lake Center
04:35PM 46.3958 -102.7633 83° East 505 581 37,000  Level Salt Lake Center
04:36PM 46.4131 -102.5617 83° East 505 581 37,000  Level Salt Lake Center
04:37PM 46.4350 -102.3178 82° East 508 585 37,000 -60 Level Salt Lake Center
04:38PM 46.4508 -102.1167 83° East 508 585 36,900  Descending Salt Lake Center
04:39PM 46.4664 -101.9153 84° East 508 585 37,000  Climbing Salt Lake Center
04:40PM 46.4900 -101.6261 83° East 507 583 37,000  Level Minneapolis Center
04:41PM 46.5064 -101.4219 83° East 508 585 37,000 300 Level Minneapolis Center
04:42PM 46.5189 -101.2261 85° East 498 573 37,700 660 Climbing Minneapolis Center
04:43PM 46.5353 -101.0239 83° East 499 574 38,400 600 Climbing Minneapolis Center
04:44PM 46.5481 -100.8236 85° East 498 573 39,000 240 Climbing Minneapolis Center
04:45PM 46.5625 -100.6250 84° East 496 571 39,000  Level Minneapolis Center
04:46PM 46.5753 -100.4208 85° East 501 577 39,000  Level Minneapolis Center
04:47PM 46.5908 -100.1758 85° East 505 581 39,000 -60 Level Minneapolis Center
04:48PM 46.6044 -99.9675 84° East 506 582 38,900 -60 Descending Minneapolis Center
04:49PM 46.6158 -99.7672 85° East 502 578 38,900  Level Minneapolis Center
04:50PM 46.6283 -99.5672 85° East 500 575 38,900  Level Minneapolis Center
04:51PM 46.6414 -99.3689 84° East 498 573 38,900  Level Minneapolis Center
04:52PM 46.6519 -99.1644 86° East 503 579 39,000  Climbing Minneapolis Center
04:53PM 46.6631 -98.9608 85° East 506 582 39,000  Level Minneapolis Center
04:54PM 46.6750 -98.7156 86° East 508 585 39,000  Level Minneapolis Center
04:56PM 46.6847 -98.5106 86° East 510 587 39,000  Level Minneapolis Center
04:57PM 46.6950 -98.3092 86° East 507 583 39,000  Level Minneapolis Center
04:58PM 46.7050 -98.1036 86° East 510 587 39,000  Level Minneapolis Center
04:59PM 46.7142 -97.8994 86° East 511 588 39,000  Level Minneapolis Center
05:00PM 46.7236 -97.6489 87° East 510 587 39,000 -60 Level Minneapolis Center
05:01PM 46.7314 -97.4583 87° East 496 571 38,900  Descending Minneapolis Center
05:02PM 46.7389 -97.2614 87° East 491 565 39,000 -180 Climbing Minneapolis Center
05:03PM 46.7469 -97.0650 87° East 491 565 38,600 -720 Descending Minneapolis Center
05:04PM 46.7394 -96.8581 93° East 512 589 37,600 -1,020 Descending Minneapolis Center
05:05PM 46.6875 -96.6258 108° East 507 583 36,600 -780 Descending Minneapolis Center
05:06PM 46.6308 -96.4422 114° Southeast 500 575 36,000 -600 Descending Minneapolis Center
05:07PM 46.5747 -96.2589 114° Southeast 499 574 35,400 -660 Descending Minneapolis Center
05:08PM 46.5189 -96.0750 114° Southeast 501 577 34,700 -720 Descending Minneapolis Center
05:09PM 46.4625 -95.8928 114° Southeast 499 574 33,900 -720 Descending Minneapolis Center
05:10PM 46.4033 -95.7003 114° Southeast 495 570 33,200 -780 Descending Minneapolis Center
05:11PM 46.3456 -95.5194 115° Southeast 495 570 32,400 -840 Descending Minneapolis Center
05:12PM 46.2819 -95.3175 114° Southeast 496 571 31,500 -840 Descending Minneapolis Center
05:13PM 46.2250 -95.1367 114° Southeast 496 571 30,700 -780 Descending Minneapolis Center
05:14PM 46.1636 -94.9447 115° Southeast 504 580 29,900 -840 Descending Minneapolis Center
05:15PM 46.1039 -94.7583 115° Southeast 511 588 29,000 -900 Descending Minneapolis Center
05:16PM 46.0458 -94.5817 115° Southeast 496 571 28,100 -1,020 Descending Minneapolis Center
05:17PM 45.9764 -94.3703 115° Southeast 490 564 26,900 -1,080 Descending Minneapolis Center
05:18PM 45.9178 -94.1908 115° Southeast 494 568 25,900 -1,020 Descending Minneapolis Center
05:19PM 45.8606 -94.0186 115° Southeast 482 555 24,900 -1,020 Descending Minneapolis Center
05:20PM 45.8050 -93.8519 116° Southeast 470 541 23,900 -1,020 Descending Minneapolis Center
05:21PM 45.7383 -93.6983 122° Southeast 462 532 22,900 -1,260 Descending Minneapolis Center
05:22PM 45.6283 -93.6336 158° South 427 491 21,300 -2,220 Descending Minneapolis Center
05:23PM 45.5003 -93.5619 159° South 413 475 18,300 -3,120 Descending Minneapolis Center
05:25PM 45.3936 -93.5056 160° South 412 474 14,900 -2,700 Descending Minneapolis Center
05:26PM 45.2881 -93.4475 159° South 408 470 12,800 -1,980 Descending Minneapolis Center
05:27PM 45.1981 -93.4003 160° South 347 399 10,900 -1,140 Descending Minneapolis Center
05:28PM 45.1167 -93.3575 160° South 314 361 10,500 -1,020 Descending Minneapolis Center
05:29PM 45.0397 -93.3153 159° South 296 341 8,900 -1,260 Descending Minneapolis Center
05:30PM 44.9453 -93.3078 177° South 282 325 8,000 -480 Descending Minneapolis Center
05:31PM 44.8669 -93.3053 179° South 284 327 8,000 -600 Level Minneapolis Center
05:32PM 44.7903 -93.3031 179° South 279 321 6,800 -1,080 Descending Minneapolis Center
05:33PM 44.7178 -93.3025 180° South 272 313 5,800 -1,140 Descending Minneapolis Center
05:34PM 44.6661 -93.2742 159° South 198 228 4,500 -900 Descending Minneapolis Center
05:35PM 44.6900 -93.2147 61° Northeast 197 227 4,000 -600 Descending Minneapolis Center
05:36PM 44.7397 -93.2031 North 190 219 3,300 -960 Descending Minneapolis Center
05:37PM 44.7967 -93.2186 349° North 181 208 2,100 -900 Descending Minneapolis Center
05:38PM 44.8328 -93.2281 349° North 138 159 1,500 -600 Descending Minneapolis Center